• Join FlightAware (Why Join?)
  • Login
  • US Flag 
10:40PM EDT


 

Airport Tracker/Info


-or-


 

Live Flight TrackerFlight Track Log ✈ KAP910 ✈ 08-May-2013 ✈ KACK - KHYA

Flight Track Log - Related Links

Times and Time Zones

All times are in EDT time to prevent confusion due to time zone crossing. See the KAP910 flight status page for this flight to view local times or setup timezone preferences in your user account.

Time Position Orientation Groundspeed Altitude Reporting Facility
EDT Latitude Longitude Course Direction KTS MPH feet Rate Location/Type
07:27AM 41.3810 -70.1156 342° North  Level FlightAware Approximate
07:28AM 41.3965 -70.1246 336° Northwest  Level FlightAware Approximate
07:29AM 41.4169 -70.1368 336° Northwest  Level FlightAware Approximate
07:30AM 41.4374 -70.1491 336° Northwest  Level FlightAware Approximate
07:31AM 41.4578 -70.1613 336° Northwest  Level FlightAware Approximate
07:32AM 41.4783 -70.1733 337° Northwest  Level FlightAware Approximate
07:33AM 41.4990 -70.1851 337° Northwest  Level FlightAware Approximate
07:34AM 41.5196 -70.1969 337° Northwest  Level FlightAware Approximate
07:35AM 41.5401 -70.2086 337° Northwest  Level FlightAware Approximate
07:36AM 41.5607 -70.2204 337° Northwest  Level FlightAware Approximate
07:37AM 41.5813 -70.2322 337° Northwest  Level FlightAware Approximate
07:38AM 41.6027 -70.2411 343° North  Level FlightAware Approximate
07:39AM 41.6242 -70.2497 343° North  Level FlightAware Approximate
07:40AM 41.6457 -70.2583 343° North  Level FlightAware Approximate
07:41AM 41.6667 -70.2667 343° North  Level FlightAware Approximate
07:42AM 41.6693 -70.2804 343° North  Level Estimated
07:43AM 41.6693 -70.2804 343° North  Level Estimated
07:44AM 41.6693 -70.2804 343° North  Level Estimated
07:45AM 41.6693 -70.2804 343° North  Level Estimated
07:46AM 41.6693 -70.2804 343° North  Level Estimated
07:47AM 41.6693 -70.2804 343° North  Level Estimated